createdAt,value
2023-05-14T00:01:33.187Z,14.05
2023-05-14T00:06:35.008Z,16.25
2023-05-14T00:11:36.895Z,10.23
2023-05-14T00:16:38.762Z,12.73
2023-05-14T00:21:40.911Z,12.55
2023-05-14T00:26:42.764Z,12.82
2023-05-14T00:31:44.896Z,11.52
2023-05-14T00:36:46.808Z,11.85
2023-05-14T00:41:48.668Z,12.90
2023-05-14T00:46:50.704Z,11.52
2023-05-14T00:51:53.550Z,10.57
2023-05-14T00:56:56.525Z,14.77
2023-05-14T01:01:58.393Z,12.88
2023-05-14T01:07:21.416Z,13.10
2023-05-14T01:13:04.209Z,11.27
2023-05-14T01:18:11.389Z,13.52
2023-05-14T01:23:13.303Z,14.18
2023-05-14T01:28:19.448Z,13.15
2023-05-14T01:33:24.926Z,20.40
2023-05-14T01:38:31.757Z,13.50
2023-05-14T01:43:34.955Z,12.80
2023-05-14T01:48:37.996Z,13.70
2023-05-14T01:53:39.826Z,13.68
2023-05-14T01:58:41.649Z,11.52
2023-05-14T02:03:43.527Z,13.73
2023-05-14T02:08:45.439Z,15.05
2023-05-14T02:13:47.340Z,15.63
2023-05-14T02:18:49.290Z,12.88
2023-05-14T02:23:51.298Z,13.93
2023-05-14T02:28:53.144Z,13.38
2023-05-14T02:33:55.098Z,10.30
2023-05-14T02:38:59.355Z,12.07
2023-05-14T02:44:01.180Z,16.67
2023-05-14T02:49:03.350Z,18.23
2023-05-14T02:54:05.568Z,11.45
2023-05-14T02:59:07.444Z,12.98
2023-05-14T03:04:09.950Z,14.45
2023-05-14T03:09:11.860Z,11.70
2023-05-14T03:14:13.789Z,18.80
2023-05-14T03:19:15.711Z,18.17
2023-05-14T03:24:18.972Z,11.48
2023-05-14T03:29:20.903Z,12.85
2023-05-14T03:34:22.937Z,10.85
2023-05-14T03:39:24.826Z,10.90
2023-05-14T03:44:26.723Z,11.05
2023-05-14T03:49:28.628Z,11.73
2023-05-14T03:54:32.063Z,14.10
2023-05-14T03:59:35.018Z,9.57
2023-05-14T04:04:36.981Z,12.10
2023-05-14T04:09:38.991Z,12.65
2023-05-14T04:14:40.853Z,11.20
2023-05-14T04:19:42.989Z,15.73
2023-05-14T04:24:44.807Z,14.30
2023-05-14T04:29:47.046Z,11.10
2023-05-14T04:34:48.858Z,10.95
2023-05-14T04:39:50.926Z,10.65
2023-05-14T04:44:52.873Z,10.98
2023-05-14T04:49:54.716Z,11.35
2023-05-14T04:54:57.038Z,10.38
2023-05-14T04:59:58.873Z,11.38
2023-05-14T05:05:00.949Z,13.80
2023-05-14T05:10:03.058Z,13.02
2023-05-14T05:15:05.729Z,13.02
2023-05-14T05:20:09.861Z,11.65
2023-05-14T05:25:13.037Z,9.80
2023-05-14T05:30:14.960Z,13.10
2023-05-14T05:35:16.792Z,13.85
2023-05-14T05:40:19.175Z,12.40
2023-05-14T05:45:21.106Z,9.93
2023-05-14T05:50:23.244Z,9.13
2023-05-14T05:55:25.856Z,10.25
2023-05-14T06:00:27.738Z,11.02
2023-05-14T06:05:29.657Z,13.30
2023-05-14T06:10:31.717Z,10.48
2023-05-14T06:15:33.642Z,17.08
2023-05-14T06:20:35.586Z,12.57
2023-05-14T06:25:37.435Z,12.30
2023-05-14T06:30:39.307Z,10.45
2023-05-14T06:35:41.183Z,12.10
2023-05-14T06:40:43.006Z,11.70
2023-05-14T06:45:48.373Z,9.55
2023-05-14T06:50:50.367Z,7.60
2023-05-14T06:55:52.311Z,9.63
2023-05-14T07:00:54.267Z,9.30
2023-05-14T07:05:56.111Z,10.65
2023-05-14T07:10:58.308Z,9.70
2023-05-14T07:16:00.169Z,8.43
2023-05-14T07:21:02.069Z,7.15
2023-05-14T07:26:05.889Z,13.82
2023-05-14T07:31:09.299Z,12.15
2023-05-14T07:36:11.333Z,9.48
2023-05-14T07:41:13.188Z,16.23
2023-05-14T07:46:15.173Z,10.93
2023-05-14T07:51:17.110Z,11.80
2023-05-14T07:56:19.006Z,8.57
2023-05-14T08:01:20.896Z,9.07
2023-05-14T08:06:23.868Z,8.43
2023-05-14T08:11:26.311Z,7.97
2023-05-14T08:16:28.514Z,9.65
2023-05-14T08:21:30.448Z,7.15
2023-05-14T08:26:33.566Z,9.68
2023-05-14T08:31:35.739Z,6.57
2023-05-14T08:36:38.818Z,8.80
2023-05-14T08:41:41.040Z,7.05
2023-05-14T08:46:43.400Z,5.55
2023-05-14T08:51:49.003Z,4.28
2023-05-14T08:56:52.480Z,5.13
2023-05-14T09:01:56.242Z,5.47
2023-05-14T09:07:01.563Z,5.72
2023-05-14T09:12:03.668Z,5.50
2023-05-14T09:17:05.871Z,5.25
2023-05-14T09:22:15.088Z,7.15
2023-05-14T09:27:20.913Z,5.93
2023-05-14T09:32:22.860Z,4.95
2023-05-14T09:37:26.153Z,4.93
2023-05-14T09:42:28.609Z,5.60
2023-05-14T09:47:32.036Z,4.93
2023-05-14T09:52:34.631Z,5.97
2023-05-14T09:57:36.804Z,6.20
2023-05-14T10:02:41.414Z,8.30
2023-05-14T10:07:48.312Z,6.25
2023-05-14T10:12:58.848Z,7.88
2023-05-14T10:23:07.720Z,7.03
2023-05-14T10:28:09.943Z,7.10
2023-05-14T10:33:14.570Z,4.93
2023-05-14T10:38:16.543Z,3.78
2023-05-14T10:43:19.948Z,9.05
2023-05-14T10:48:22.337Z,5.40
2023-05-14T10:53:36.189Z,4.05
2023-05-14T10:58:39.395Z,4.70
2023-05-14T11:03:46.507Z,7.57
2023-05-14T11:08:51.450Z,5.38
2023-05-14T11:13:54.103Z,4.70
2023-05-14T11:19:03.991Z,5.70
2023-05-14T11:24:07.487Z,3.42
2023-05-14T11:29:10.602Z,5.95
2023-05-14T11:34:12.489Z,6.10
2023-05-14T11:39:20.643Z,3.47
2023-05-14T11:44:22.819Z,5.20
2023-05-14T11:49:25.887Z,3.78
2023-05-14T11:54:31.920Z,5.28
2023-05-14T11:59:34.215Z,6.10
2023-05-14T12:04:36.936Z,5.63
2023-05-14T12:09:49.495Z,6.13
2023-05-14T12:14:53.176Z,9.45
2023-05-14T12:19:59.296Z,5.13
2023-05-14T12:25:01.940Z,6.18
2023-05-14T12:30:20.493Z,3.00
2023-05-14T12:35:23.741Z,4.18
2023-05-14T12:40:26.566Z,3.35
2023-05-14T12:45:30.135Z,5.13
2023-05-14T12:50:32.584Z,4.35
2023-05-14T12:55:34.712Z,5.53
2023-05-14T13:00:36.869Z,7.70
2023-05-14T13:05:38.761Z,2.85
2023-05-14T13:10:41.154Z,3.50
2023-05-14T13:15:43.203Z,3.78
2023-05-14T13:20:47.485Z,4.10
2023-05-14T13:25:50.037Z,4.10
2023-05-14T13:31:08.974Z,3.63
2023-05-14T13:36:13.497Z,3.45
2023-05-14T13:41:15.423Z,3.92
2023-05-14T13:46:17.433Z,3.47
2023-05-14T13:51:19.408Z,4.78
2023-05-14T13:56:21.729Z,3.58
2023-05-14T14:01:23.775Z,3.50
2023-05-14T14:06:27.519Z,6.25
2023-05-14T14:11:29.510Z,3.08
2023-05-14T14:16:31.589Z,3.70
2023-05-14T14:21:35.326Z,6.90
2023-05-14T14:26:37.330Z,5.53
2023-05-14T14:31:39.425Z,6.55
2023-05-14T14:36:41.456Z,5.22
2023-05-14T14:41:43.362Z,4.63
2023-05-14T14:46:45.284Z,3.65
2023-05-14T14:51:47.300Z,6.30
2023-05-14T14:56:52.446Z,5.72
2023-05-14T15:01:54.508Z,4.72
2023-05-14T15:06:56.499Z,7.18
2023-05-14T15:11:58.616Z,10.05
2023-05-14T15:17:00.686Z,6.45
2023-05-14T15:22:02.700Z,3.58
2023-05-14T15:27:05.210Z,4.63
2023-05-14T15:32:07.806Z,7.25
2023-05-14T15:37:10.329Z,9.70
2023-05-14T15:42:13.043Z,3.65
2023-05-14T15:47:14.959Z,4.45
2023-05-14T15:52:16.982Z,5.90
2023-05-14T15:57:20.065Z,8.10
2023-05-14T16:02:22.556Z,4.47
2023-05-14T16:07:26.540Z,5.78
2023-05-14T16:12:29.135Z,5.05
2023-05-14T16:17:33.160Z,7.43
2023-05-14T16:22:36.523Z,2.90
2023-05-14T16:27:39.298Z,1.98
2023-05-14T16:32:42.218Z,3.30
2023-05-14T16:37:44.537Z,3.72
2023-05-14T16:42:49.293Z,4.05
2023-05-14T16:47:51.778Z,4.18
2023-05-14T16:52:54.375Z,4.28
2023-05-14T16:57:56.777Z,4.78
2023-05-14T17:02:59.155Z,4.32
2023-05-14T17:08:02.293Z,4.40
2023-05-14T17:13:06.166Z,3.67
2023-05-14T17:18:08.766Z,5.38
2023-05-14T17:23:11.391Z,4.30
2023-05-14T17:28:13.928Z,3.78
2023-05-14T17:33:15.969Z,2.83
2023-05-14T17:38:17.939Z,3.17
2023-05-14T17:43:19.791Z,4.80
2023-05-14T17:48:23.024Z,4.43
2023-05-14T17:53:25.019Z,6.10
2023-05-14T17:58:27.727Z,5.15
2023-05-14T18:03:29.751Z,5.00
2023-05-14T18:08:31.761Z,6.18
2023-05-14T18:13:33.734Z,4.63
2023-05-14T18:18:36.371Z,4.18
2023-05-14T18:23:38.849Z,3.45
2023-05-14T18:28:40.893Z,2.42
2023-05-14T18:33:42.750Z,6.18
2023-05-14T18:38:44.603Z,3.97
2023-05-14T18:43:46.746Z,4.00
2023-05-14T18:48:49.430Z,3.40
2023-05-14T18:53:52.271Z,4.60
2023-05-14T18:58:54.605Z,3.40
2023-05-14T19:03:56.872Z,3.95
2023-05-14T19:08:59.535Z,5.50
2023-05-14T19:14:01.440Z,9.93
2023-05-14T19:19:03.623Z,5.13
2023-05-14T19:24:06.008Z,4.68
2023-05-14T19:29:08.613Z,5.38
2023-05-14T19:34:11.377Z,12.52
2023-05-14T19:39:13.380Z,5.15
2023-05-14T19:44:15.375Z,8.98
2023-05-14T19:49:17.335Z,6.28
2023-05-14T19:54:19.716Z,4.22
2023-05-14T19:59:21.641Z,6.47
2023-05-14T20:04:23.522Z,4.57
2023-05-14T20:09:26.447Z,3.78
2023-05-14T20:14:29.201Z,5.88
2023-05-14T20:19:31.740Z,3.80
2023-05-14T20:24:33.834Z,7.80
2023-05-14T20:29:35.670Z,4.88
2023-05-14T20:34:37.551Z,4.63
2023-05-14T20:39:39.446Z,3.97
2023-05-14T20:44:41.400Z,6.20
2023-05-14T20:49:43.423Z,3.08
2023-05-14T20:54:45.248Z,6.38
2023-05-14T20:59:47.783Z,4.32
2023-05-14T21:04:50.001Z,5.00
2023-05-14T21:09:52.719Z,5.65
2023-05-14T21:14:54.605Z,6.85
2023-05-14T21:19:56.438Z,7.97
2023-05-14T21:24:58.258Z,6.43
2023-05-14T21:30:00.161Z,4.15
2023-05-14T21:35:02.356Z,4.13
2023-05-14T21:40:04.428Z,3.13
2023-05-14T21:45:06.873Z,2.75
2023-05-14T21:50:09.139Z,5.30
2023-05-14T21:55:11.031Z,6.10
2023-05-14T22:00:13.576Z,2.47
2023-05-14T22:05:17.014Z,4.85
2023-05-14T22:10:18.962Z,4.45
2023-05-14T22:15:20.975Z,4.03
2023-05-14T22:20:22.952Z,4.38
2023-05-14T22:25:25.045Z,3.33
2023-05-14T22:30:27.104Z,3.15
2023-05-14T22:35:28.964Z,3.47
2023-05-14T22:40:30.796Z,4.43
2023-05-14T22:45:32.670Z,3.60
2023-05-14T22:50:34.604Z,3.58
2023-05-14T22:55:36.466Z,6.30
2023-05-14T23:00:38.430Z,6.95
2023-05-14T23:05:40.307Z,5.35
2023-05-14T23:10:42.150Z,6.75
2023-05-14T23:15:44.294Z,3.33
2023-05-14T23:20:46.133Z,4.43
2023-05-14T23:25:50.267Z,3.05
2023-05-14T23:30:52.139Z,4.85
2023-05-14T23:35:54.063Z,5.05
2023-05-14T23:40:55.916Z,3.92
2023-05-14T23:45:57.955Z,3.78
2023-05-14T23:50:59.761Z,2.60
2023-05-14T23:56:01.914Z,2.75
